sensor_id;sensor_type;location;lat;lon;timestamp;temperature;humidity
76293;DHT22;65101;51.140;4.088;2022-12-18T00:01:12;14.20;45.90
76293;DHT22;65101;51.140;4.088;2022-12-18T00:03:38;14.20;45.20
76293;DHT22;65101;51.140;4.088;2022-12-18T00:06:04;14.20;45.70
76293;DHT22;65101;51.140;4.088;2022-12-18T00:08:30;14.20;45.30
76293;DHT22;65101;51.140;4.088;2022-12-18T00:10:55;14.20;45.10
76293;DHT22;65101;51.140;4.088;2022-12-18T00:13:28;14.20;45.80
76293;DHT22;65101;51.140;4.088;2022-12-18T00:15:54;14.10;45.70
76293;DHT22;65101;51.140;4.088;2022-12-18T00:18:19;14.10;45.70
76293;DHT22;65101;51.140;4.088;2022-12-18T00:20:45;14.10;45.30
76293;DHT22;65101;51.140;4.088;2022-12-18T00:23:10;14.00;44.60
76293;DHT22;65101;51.140;4.088;2022-12-18T00:25:36;14.00;45.30
76293;DHT22;65101;51.140;4.088;2022-12-18T00:28:03;14.00;45.50
76293;DHT22;65101;51.140;4.088;2022-12-18T00:30:29;14.00;45.50
76293;DHT22;65101;51.140;4.088;2022-12-18T00:32:55;14.00;45.20
76293;DHT22;65101;51.140;4.088;2022-12-18T00:35:21;14.00;45.30
76293;DHT22;65101;51.140;4.088;2022-12-18T00:37:46;14.00;45.00
76293;DHT22;65101;51.140;4.088;2022-12-18T00:40:12;14.00;45.40
76293;DHT22;65101;51.140;4.088;2022-12-18T00:42:38;13.90;45.10
76293;DHT22;65101;51.140;4.088;2022-12-18T00:45:27;13.90;45.30
76293;DHT22;65101;51.140;4.088;2022-12-18T00:47:53;13.90;45.00
76293;DHT22;65101;51.140;4.088;2022-12-18T00:50:20;13.90;45.40
76293;DHT22;65101;51.140;4.088;2022-12-18T00:52:45;13.90;45.10
76293;DHT22;65101;51.140;4.088;2022-12-18T00:55:11;13.90;45.60
76293;DHT22;65101;51.140;4.088;2022-12-18T00:57:37;13.90;45.00
76293;DHT22;65101;51.140;4.088;2022-12-18T01:00:05;13.90;44.90
76293;DHT22;65101;51.140;4.088;2022-12-18T01:02:31;13.80;44.90
76293;DHT22;65101;51.140;4.088;2022-12-18T01:04:56;13.80;45.20
76293;DHT22;65101;51.140;4.088;2022-12-18T01:07:22;13.80;44.70
76293;DHT22;65101;51.140;4.088;2022-12-18T01:09:48;13.80;44.40
76293;DHT22;65101;51.140;4.088;2022-12-18T01:12:13;13.70;44.70
76293;DHT22;65101;51.140;4.088;2022-12-18T01:14:39;13.70;44.50
76293;DHT22;65101;51.140;4.088;2022-12-18T01:17:05;13.70;44.90
76293;DHT22;65101;51.140;4.088;2022-12-18T01:19:30;13.70;44.70
76293;DHT22;65101;51.140;4.088;2022-12-18T01:21:56;13.70;45.00
76293;DHT22;65101;51.140;4.088;2022-12-18T01:24:22;13.60;44.80
76293;DHT22;65101;51.140;4.088;2022-12-18T01:26:47;13.60;44.30
76293;DHT22;65101;51.140;4.088;2022-12-18T01:29:13;13.60;44.40
76293;DHT22;65101;51.140;4.088;2022-12-18T01:31:39;13.60;44.10
76293;DHT22;65101;51.140;4.088;2022-12-18T01:34:05;13.50;44.10
76293;DHT22;65101;51.140;4.088;2022-12-18T01:36:33;13.50;44.80
76293;DHT22;65101;51.140;4.088;2022-12-18T01:39:04;13.50;43.60
76293;DHT22;65101;51.140;4.088;2022-12-18T01:41:31;13.50;44.40
76293;DHT22;65101;51.140;4.088;2022-12-18T01:47:46;13.50;43.70
76293;DHT22;65101;51.140;4.088;2022-12-18T01:50:23;13.50;44.60
76293;DHT22;65101;51.140;4.088;2022-12-18T01:52:53;13.50;44.10
76293;DHT22;65101;51.140;4.088;2022-12-18T01:55:22;13.50;44.20
76293;DHT22;65101;51.140;4.088;2022-12-18T01:57:51;13.40;44.20
76293;DHT22;65101;51.140;4.088;2022-12-18T02:00:21;13.40;43.90
76293;DHT22;65101;51.140;4.088;2022-12-18T02:02:47;13.40;44.20
76293;DHT22;65101;51.140;4.088;2022-12-18T02:06:15;13.40;44.00
76293;DHT22;65101;51.140;4.088;2022-12-18T02:08:10;13.40;44.10
76293;DHT22;65101;51.140;4.088;2022-12-18T02:10:53;13.40;44.30
76293;DHT22;65101;51.140;4.088;2022-12-18T02:18:30;13.30;43.30
76293;DHT22;65101;51.140;4.088;2022-12-18T02:21:04;13.20;43.80
76293;DHT22;65101;51.140;4.088;2022-12-18T02:28:46;13.20;43.50
76293;DHT22;65101;51.140;4.088;2022-12-18T02:31:18;13.20;43.30
76293;DHT22;65101;51.140;4.088;2022-12-18T02:33:46;13.20;44.00
76293;DHT22;65101;51.140;4.088;2022-12-18T02:36:12;13.20;43.90
76293;DHT22;65101;51.140;4.088;2022-12-18T02:38:40;13.20;43.60
76293;DHT22;65101;51.140;4.088;2022-12-18T02:41:07;13.10;44.10
76293;DHT22;65101;51.140;4.088;2022-12-18T02:43:33;13.20;43.80
76293;DHT22;65101;51.140;4.088;2022-12-18T02:46:00;13.10;43.20
76293;DHT22;65101;51.140;4.088;2022-12-18T02:48:30;13.10;43.40
76293;DHT22;65101;51.140;4.088;2022-12-18T02:51:24;13.10;44.00
76293;DHT22;65101;51.140;4.088;2022-12-18T02:54:06;13.00;43.10
76293;DHT22;65101;51.140;4.088;2022-12-18T02:56:43;13.10;43.30
76293;DHT22;65101;51.140;4.088;2022-12-18T02:59:18;13.00;44.00
76293;DHT22;65101;51.140;4.088;2022-12-18T03:07:53;13.00;43.20
76293;DHT22;65101;51.140;4.088;2022-12-18T03:10:25;13.00;43.50
76293;DHT22;65101;51.140;4.088;2022-12-18T03:13:08;12.90;43.70
76293;DHT22;65101;51.140;4.088;2022-12-18T03:15:41;12.90;43.30
76293;DHT22;65101;51.140;4.088;2022-12-18T03:18:21;12.90;43.70
76293;DHT22;65101;51.140;4.088;2022-12-18T03:20:49;12.90;43.90
76293;DHT22;65101;51.140;4.088;2022-12-18T03:23:22;12.90;44.10
76293;DHT22;65101;51.140;4.088;2022-12-18T03:25:52;12.90;43.80
76293;DHT22;65101;51.140;4.088;2022-12-18T03:28:21;12.90;44.40
76293;DHT22;65101;51.140;4.088;2022-12-18T03:30:51;12.90;43.70
76293;DHT22;65101;51.140;4.088;2022-12-18T03:33:31;12.90;43.00
76293;DHT22;65101;51.140;4.088;2022-12-18T03:36:00;12.90;43.50
76293;DHT22;65101;51.140;4.088;2022-12-18T03:38:26;12.80;43.70
76293;DHT22;65101;51.140;4.088;2022-12-18T03:41:05;12.80;43.40
76293;DHT22;65101;51.140;4.088;2022-12-18T03:46:30;12.80;43.70
76293;DHT22;65101;51.140;4.088;2022-12-18T03:49:04;12.80;43.40
76293;DHT22;65101;51.140;4.088;2022-12-18T03:51:46;12.70;43.60
76293;DHT22;65101;51.140;4.088;2022-12-18T03:54:13;12.70;43.10
76293;DHT22;65101;51.140;4.088;2022-12-18T03:56:43;12.70;43.20
76293;DHT22;65101;51.140;4.088;2022-12-18T03:59:11;12.60;42.90
76293;DHT22;65101;51.140;4.088;2022-12-18T04:01:41;12.60;43.00
76293;DHT22;65101;51.140;4.088;2022-12-18T04:04:08;12.70;42.80
76293;DHT22;65101;51.140;4.088;2022-12-18T04:06:36;12.90;42.50
76293;DHT22;65101;51.140;4.088;2022-12-18T04:09:04;13.10;42.30
76293;DHT22;65101;51.140;4.088;2022-12-18T04:11:30;13.20;41.80
76293;DHT22;65101;51.140;4.088;2022-12-18T04:13:56;13.40;41.60
76293;DHT22;65101;51.140;4.088;2022-12-18T04:16:26;13.70;41.50
76293;DHT22;65101;51.140;4.088;2022-12-18T04:18:52;14.00;40.90
76293;DHT22;65101;51.140;4.088;2022-12-18T04:21:18;14.20;40.40
76293;DHT22;65101;51.140;4.088;2022-12-18T04:23:44;14.40;40.00
76293;DHT22;65101;51.140;4.088;2022-12-18T04:26:10;14.50;39.70
76293;DHT22;65101;51.140;4.088;2022-12-18T04:28:36;14.60;39.70
76293;DHT22;65101;51.140;4.088;2022-12-18T04:31:01;14.70;39.50
76293;DHT22;65101;51.140;4.088;2022-12-18T04:33:28;14.80;39.00
76293;DHT22;65101;51.140;4.088;2022-12-18T04:35:53;14.90;39.20
76293;DHT22;65101;51.140;4.088;2022-12-18T04:38:19;15.00;39.20
76293;DHT22;65101;51.140;4.088;2022-12-18T04:40:44;15.00;38.60
76293;DHT22;65101;51.140;4.088;2022-12-18T04:43:10;15.20;38.40
76293;DHT22;65101;51.140;4.088;2022-12-18T04:45:36;15.20;38.60
76293;DHT22;65101;51.140;4.088;2022-12-18T04:48:02;15.20;38.60
76293;DHT22;65101;51.140;4.088;2022-12-18T04:50:29;15.20;38.80
76293;DHT22;65101;51.140;4.088;2022-12-18T04:52:55;15.30;38.90
76293;DHT22;65101;51.140;4.088;2022-12-18T04:55:21;15.40;38.40
76293;DHT22;65101;51.140;4.088;2022-12-18T04:57:49;15.40;38.40
76293;DHT22;65101;51.140;4.088;2022-12-18T05:00:15;15.30;38.40
76293;DHT22;65101;51.140;4.088;2022-12-18T05:02:41;15.40;38.70
76293;DHT22;65101;51.140;4.088;2022-12-18T05:05:07;15.50;38.40
76293;DHT22;65101;51.140;4.088;2022-12-18T05:07:33;15.60;38.40
76293;DHT22;65101;51.140;4.088;2022-12-18T05:09:58;15.60;38.50
76293;DHT22;65101;51.140;4.088;2022-12-18T05:12:24;15.60;38.40
76293;DHT22;65101;51.140;4.088;2022-12-18T05:14:50;15.60;38.10
76293;DHT22;65101;51.140;4.088;2022-12-18T05:17:16;15.50;38.30
76293;DHT22;65101;51.140;4.088;2022-12-18T05:19:41;15.50;38.50
76293;DHT22;65101;51.140;4.088;2022-12-18T05:22:07;15.50;38.30
76293;DHT22;65101;51.140;4.088;2022-12-18T05:24:33;15.50;38.50
76293;DHT22;65101;51.140;4.088;2022-12-18T05:26:59;15.40;38.60
76293;DHT22;65101;51.140;4.088;2022-12-18T05:29:24;15.40;38.60
76293;DHT22;65101;51.140;4.088;2022-12-18T05:31:50;15.40;39.00
76293;DHT22;65101;51.140;4.088;2022-12-18T05:34:15;15.30;39.20
76293;DHT22;65101;51.140;4.088;2022-12-18T05:36:41;15.30;39.10
76293;DHT22;65101;51.140;4.088;2022-12-18T05:39:07;15.30;39.40
76293;DHT22;65101;51.140;4.088;2022-12-18T05:41:33;15.20;39.00
76293;DHT22;65101;51.140;4.088;2022-12-18T05:43:59;15.20;39.20
76293;DHT22;65101;51.140;4.088;2022-12-18T05:46:24;15.30;39.10
76293;DHT22;65101;51.140;4.088;2022-12-18T05:48:50;15.20;39.60
76293;DHT22;65101;51.140;4.088;2022-12-18T05:51:18;15.20;39.30
76293;DHT22;65101;51.140;4.088;2022-12-18T05:53:45;15.20;39.50
76293;DHT22;65101;51.140;4.088;2022-12-18T05:56:13;15.20;39.40
76293;DHT22;65101;51.140;4.088;2022-12-18T05:58:40;15.20;39.30
76293;DHT22;65101;51.140;4.088;2022-12-18T06:01:08;15.10;39.30
76293;DHT22;65101;51.140;4.088;2022-12-18T06:03:35;15.20;39.30
76293;DHT22;65101;51.140;4.088;2022-12-18T06:06:00;15.20;39.20
76293;DHT22;65101;51.140;4.088;2022-12-18T06:08:26;15.10;38.90
76293;DHT22;65101;51.140;4.088;2022-12-18T06:10:52;15.10;39.20
76293;DHT22;65101;51.140;4.088;2022-12-18T06:13:19;15.10;39.40
76293;DHT22;65101;51.140;4.088;2022-12-18T06:15:44;15.00;39.20
76293;DHT22;65101;51.140;4.088;2022-12-18T06:18:10;15.00;39.10
76293;DHT22;65101;51.140;4.088;2022-12-18T06:20:35;15.00;39.20
76293;DHT22;65101;51.140;4.088;2022-12-18T06:23:02;14.90;39.20
76293;DHT22;65101;51.140;4.088;2022-12-18T06:25:28;14.90;39.00
76293;DHT22;65101;51.140;4.088;2022-12-18T06:27:54;14.80;39.20
76293;DHT22;65101;51.140;4.088;2022-12-18T06:30:20;14.80;39.00
76293;DHT22;65101;51.140;4.088;2022-12-18T06:32:46;14.80;40.10
76293;DHT22;65101;51.140;4.088;2022-12-18T06:35:13;14.70;39.40
76293;DHT22;65101;51.140;4.088;2022-12-18T06:37:38;14.60;39.80
76293;DHT22;65101;51.140;4.088;2022-12-18T06:40:04;14.60;40.40
76293;DHT22;65101;51.140;4.088;2022-12-18T06:42:30;14.60;39.80
76293;DHT22;65101;51.140;4.088;2022-12-18T06:44:57;14.50;39.70
76293;DHT22;65101;51.140;4.088;2022-12-18T06:47:23;14.50;39.70
76293;DHT22;65101;51.140;4.088;2022-12-18T06:49:48;14.40;39.90
76293;DHT22;65101;51.140;4.088;2022-12-18T06:52:14;14.40;40.20
76293;DHT22;65101;51.140;4.088;2022-12-18T06:54:39;14.40;39.50
76293;DHT22;65101;51.140;4.088;2022-12-18T06:57:05;14.40;39.70
76293;DHT22;65101;51.140;4.088;2022-12-18T06:59:31;14.40;40.00
76293;DHT22;65101;51.140;4.088;2022-12-18T07:01:56;14.40;39.70
76293;DHT22;65101;51.140;4.088;2022-12-18T07:04:22;14.30;39.80
76293;DHT22;65101;51.140;4.088;2022-12-18T07:06:47;14.30;39.50
76293;DHT22;65101;51.140;4.088;2022-12-18T07:09:13;14.30;40.00
76293;DHT22;65101;51.140;4.088;2022-12-18T07:11:39;14.30;39.60
76293;DHT22;65101;51.140;4.088;2022-12-18T07:14:04;14.30;39.80
76293;DHT22;65101;51.140;4.088;2022-12-18T07:16:30;14.30;40.10
76293;DHT22;65101;51.140;4.088;2022-12-18T07:18:55;14.30;39.90
76293;DHT22;65101;51.140;4.088;2022-12-18T07:21:22;14.20;39.50
76293;DHT22;65101;51.140;4.088;2022-12-18T07:23:48;14.20;39.90
76293;DHT22;65101;51.140;4.088;2022-12-18T07:26:17;14.20;40.30
76293;DHT22;65101;51.140;4.088;2022-12-18T07:28:43;14.10;39.60
76293;DHT22;65101;51.140;4.088;2022-12-18T07:31:14;14.10;39.80
76293;DHT22;65101;51.140;4.088;2022-12-18T07:33:41;14.10;39.80
76293;DHT22;65101;51.140;4.088;2022-12-18T07:36:07;14.10;40.00
76293;DHT22;65101;51.140;4.088;2022-12-18T07:38:34;14.10;40.10
76293;DHT22;65101;51.140;4.088;2022-12-18T07:41:13;14.00;40.50
76293;DHT22;65101;51.140;4.088;2022-12-18T07:43:40;14.00;40.10
76293;DHT22;65101;51.140;4.088;2022-12-18T07:46:06;14.00;40.60
76293;DHT22;65101;51.140;4.088;2022-12-18T07:48:32;13.90;40.40
76293;DHT22;65101;51.140;4.088;2022-12-18T07:51:05;14.10;40.30
76293;DHT22;65101;51.140;4.088;2022-12-18T07:53:33;14.10;39.80
76293;DHT22;65101;51.140;4.088;2022-12-18T07:56:00;14.30;39.90
76293;DHT22;65101;51.140;4.088;2022-12-18T07:58:28;14.60;40.10
76293;DHT22;65101;51.140;4.088;2022-12-18T08:00:53;14.90;39.80
76293;DHT22;65101;51.140;4.088;2022-12-18T08:03:19;15.30;39.20
76293;DHT22;65101;51.140;4.088;2022-12-18T08:05:45;15.50;38.40
76293;DHT22;65101;51.140;4.088;2022-12-18T08:08:10;15.70;38.00
76293;DHT22;65101;51.140;4.088;2022-12-18T08:10:37;15.90;37.60
76293;DHT22;65101;51.140;4.088;2022-12-18T08:13:03;16.20;37.50
76293;DHT22;65101;51.140;4.088;2022-12-18T08:15:29;16.30;37.20
76293;DHT22;65101;51.140;4.088;2022-12-18T08:17:57;16.50;37.00
76293;DHT22;65101;51.140;4.088;2022-12-18T08:20:23;16.70;37.00
76293;DHT22;65101;51.140;4.088;2022-12-18T08:22:48;16.90;36.20
76293;DHT22;65101;51.140;4.088;2022-12-18T08:25:14;17.10;36.20
76293;DHT22;65101;51.140;4.088;2022-12-18T08:27:40;17.20;35.80
76293;DHT22;65101;51.140;4.088;2022-12-18T08:30:06;17.20;35.90
76293;DHT22;65101;51.140;4.088;2022-12-18T08:32:32;17.40;36.00
76293;DHT22;65101;51.140;4.088;2022-12-18T08:34:58;17.30;35.70
76293;DHT22;65101;51.140;4.088;2022-12-18T08:37:24;17.40;37.20
76293;DHT22;65101;51.140;4.088;2022-12-18T08:39:50;17.60;37.10
76293;DHT22;65101;51.140;4.088;2022-12-18T08:42:15;17.50;36.50
76293;DHT22;65101;51.140;4.088;2022-12-18T08:45:00;17.40;36.70
76293;DHT22;65101;51.140;4.088;2022-12-18T08:47:25;17.40;36.60
76293;DHT22;65101;51.140;4.088;2022-12-18T08:49:51;17.40;36.80
76293;DHT22;65101;51.140;4.088;2022-12-18T08:52:17;17.40;36.80
76293;DHT22;65101;51.140;4.088;2022-12-18T08:54:42;17.40;37.20
76293;DHT22;65101;51.140;4.088;2022-12-18T08:57:08;17.50;37.40
76293;DHT22;65101;51.140;4.088;2022-12-18T08:59:34;17.60;37.20
76293;DHT22;65101;51.140;4.088;2022-12-18T09:01:59;17.60;37.40
76293;DHT22;65101;51.140;4.088;2022-12-18T09:04:26;17.80;37.30
76293;DHT22;65101;51.140;4.088;2022-12-18T09:06:55;17.70;37.30
76293;DHT22;65101;51.140;4.088;2022-12-18T09:09:20;17.70;37.30
76293;DHT22;65101;51.140;4.088;2022-12-18T09:11:46;17.70;37.70
76293;DHT22;65101;51.140;4.088;2022-12-18T09:14:12;17.70;37.50
76293;DHT22;65101;51.140;4.088;2022-12-18T09:16:38;17.90;37.40
76293;DHT22;65101;51.140;4.088;2022-12-18T09:19:04;17.80;37.50
76293;DHT22;65101;51.140;4.088;2022-12-18T09:21:33;17.80;37.60
76293;DHT22;65101;51.140;4.088;2022-12-18T09:23:59;17.90;37.20
76293;DHT22;65101;51.140;4.088;2022-12-18T09:26:26;17.80;37.30
76293;DHT22;65101;51.140;4.088;2022-12-18T09:28:52;18.10;37.60
76293;DHT22;65101;51.140;4.088;2022-12-18T09:31:19;18.10;37.50
76293;DHT22;65101;51.140;4.088;2022-12-18T09:33:45;18.20;37.00
76293;DHT22;65101;51.140;4.088;2022-12-18T09:36:13;18.30;37.60
76293;DHT22;65101;51.140;4.088;2022-12-18T09:38:39;18.40;37.40
76293;DHT22;65101;51.140;4.088;2022-12-18T09:44:19;18.50;37.10
76293;DHT22;65101;51.140;4.088;2022-12-18T09:49:30;18.60;37.10
76293;DHT22;65101;51.140;4.088;2022-12-18T09:52:02;18.70;37.00
76293;DHT22;65101;51.140;4.088;2022-12-18T09:54:36;18.80;37.10
76293;DHT22;65101;51.140;4.088;2022-12-18T09:57:04;18.90;37.00
76293;DHT22;65101;51.140;4.088;2022-12-18T09:59:37;18.70;37.30
76293;DHT22;65101;51.140;4.088;2022-12-18T10:02:17;18.80;37.20
76293;DHT22;65101;51.140;4.088;2022-12-18T10:04:45;19.00;36.70
76293;DHT22;65101;51.140;4.088;2022-12-18T10:07:24;19.10;37.20
76293;DHT22;65101;51.140;4.088;2022-12-18T10:10:25;19.20;36.70
76293;DHT22;65101;51.140;4.088;2022-12-18T10:21:02;19.40;36.80
76293;DHT22;65101;51.140;4.088;2022-12-18T10:26:11;19.30;37.00
76293;DHT22;65101;51.140;4.088;2022-12-18T10:28:40;19.30;36.60
76293;DHT22;65101;51.140;4.088;2022-12-18T10:31:07;19.40;36.90
76293;DHT22;65101;51.140;4.088;2022-12-18T10:33:37;19.40;36.50
76293;DHT22;65101;51.140;4.088;2022-12-18T10:36:03;19.40;36.90
76293;DHT22;65101;51.140;4.088;2022-12-18T10:38:31;19.50;37.00
76293;DHT22;65101;51.140;4.088;2022-12-18T10:41:32;19.50;37.00
76293;DHT22;65101;51.140;4.088;2022-12-18T10:44:19;19.50;37.00
76293;DHT22;65101;51.140;4.088;2022-12-18T10:46:50;19.50;36.80
76293;DHT22;65101;51.140;4.088;2022-12-18T10:49:21;19.50;37.40
76293;DHT22;65101;51.140;4.088;2022-12-18T10:51:48;19.40;37.10
76293;DHT22;65101;51.140;4.088;2022-12-18T10:54:22;19.30;37.60
76293;DHT22;65101;51.140;4.088;2022-12-18T10:56:48;19.40;37.40
76293;DHT22;65101;51.140;4.088;2022-12-18T10:59:16;19.20;37.70
76293;DHT22;65101;51.140;4.088;2022-12-18T11:04:30;19.10;37.70
76293;DHT22;65101;51.140;4.088;2022-12-18T11:07:01;19.10;38.10
76293;DHT22;65101;51.140;4.088;2022-12-18T11:09:33;19.10;38.40
76293;DHT22;65101;51.140;4.088;2022-12-18T11:12:04;19.10;37.90
76293;DHT22;65101;51.140;4.088;2022-12-18T11:14:53;19.00;38.00
76293;DHT22;65101;51.140;4.088;2022-12-18T11:17:33;19.00;38.10
76293;DHT22;65101;51.140;4.088;2022-12-18T11:20:04;19.00;38.80
76293;DHT22;65101;51.140;4.088;2022-12-18T11:22:34;18.90;38.90
76293;DHT22;65101;51.140;4.088;2022-12-18T11:27:48;18.40;38.00
76293;DHT22;65101;51.140;4.088;2022-12-18T11:33:15;18.10;37.90
76293;DHT22;65101;51.140;4.088;2022-12-18T11:35:57;18.00;38.20
76293;DHT22;65101;51.140;4.088;2022-12-18T11:38:43;17.90;38.30
76293;DHT22;65101;51.140;4.088;2022-12-18T11:41:24;17.70;36.50
76293;DHT22;65101;51.140;4.088;2022-12-18T11:44:31;17.40;36.60
76293;DHT22;65101;51.140;4.088;2022-12-18T11:47:07;17.20;37.20
76293;DHT22;65101;51.140;4.088;2022-12-18T11:49:36;17.00;37.10
76293;DHT22;65101;51.140;4.088;2022-12-18T11:52:17;16.70;37.50
76293;DHT22;65101;51.140;4.088;2022-12-18T11:54:44;16.60;37.70
76293;DHT22;65101;51.140;4.088;2022-12-18T12:00:18;16.50;38.10
76293;DHT22;65101;51.140;4.088;2022-12-18T12:06:00;16.60;39.30
76293;DHT22;65101;51.140;4.088;2022-12-18T12:16:58;16.60;39.50
76293;DHT22;65101;51.140;4.088;2022-12-18T12:23:09;17.00;40.60
76293;DHT22;65101;51.140;4.088;2022-12-18T12:25:41;17.10;41.10
76293;DHT22;65101;51.140;4.088;2022-12-18T12:37:05;17.10;40.90
76293;DHT22;65101;51.140;4.088;2022-12-18T12:39:31;17.00;41.00
76293;DHT22;65101;51.140;4.088;2022-12-18T12:41:59;17.00;41.20
76293;DHT22;65101;51.140;4.088;2022-12-18T12:44:51;17.00;41.40
76293;DHT22;65101;51.140;4.088;2022-12-18T12:47:33;17.00;41.40
76293;DHT22;65101;51.140;4.088;2022-12-18T12:50:03;17.00;42.00
76293;DHT22;65101;51.140;4.088;2022-12-18T12:52:38;17.10;41.40
76293;DHT22;65101;51.140;4.088;2022-12-18T12:55:12;17.00;42.00
76293;DHT22;65101;51.140;4.088;2022-12-18T12:57:40;17.00;42.10
76293;DHT22;65101;51.140;4.088;2022-12-18T13:00:14;17.00;42.00
76293;DHT22;65101;51.140;4.088;2022-12-18T13:02:55;16.90;42.10
76293;DHT22;65101;51.140;4.088;2022-12-18T13:08:24;16.90;41.90
76293;DHT22;65101;51.140;4.088;2022-12-18T13:10:51;16.90;42.80
76293;DHT22;65101;51.140;4.088;2022-12-18T13:13:54;16.80;42.50
76293;DHT22;65101;51.140;4.088;2022-12-18T13:16:22;16.80;42.20
76293;DHT22;65101;51.140;4.088;2022-12-18T13:18:54;16.80;42.70
76293;DHT22;65101;51.140;4.088;2022-12-18T13:21:28;16.70;42.10
76293;DHT22;65101;51.140;4.088;2022-12-18T13:23:55;16.70;42.40
76293;DHT22;65101;51.140;4.088;2022-12-18T13:28:56;16.70;42.70
76293;DHT22;65101;51.140;4.088;2022-12-18T13:34:22;16.70;42.70
76293;DHT22;65101;51.140;4.088;2022-12-18T13:36:49;16.60;42.80
76293;DHT22;65101;51.140;4.088;2022-12-18T13:41:44;16.60;42.60
76293;DHT22;65101;51.140;4.088;2022-12-18T13:44:36;16.60;43.00
76293;DHT22;65101;51.140;4.088;2022-12-18T13:47:03;16.80;42.70
76293;DHT22;65101;51.140;4.088;2022-12-18T13:49:41;16.80;41.90
76293;DHT22;65101;51.140;4.088;2022-12-18T13:52:21;17.00;42.00
76293;DHT22;65101;51.140;4.088;2022-12-18T13:54:51;17.30;42.00
76293;DHT22;65101;51.140;4.088;2022-12-18T13:57:36;17.60;41.20
76293;DHT22;65101;51.140;4.088;2022-12-18T14:00:28;17.80;41.00
76293;DHT22;65101;51.140;4.088;2022-12-18T14:02:56;17.90;40.30
76293;DHT22;65101;51.140;4.088;2022-12-18T14:07:52;18.10;40.30
76293;DHT22;65101;51.140;4.088;2022-12-18T14:10:18;17.90;40.40
76293;DHT22;65101;51.140;4.088;2022-12-18T14:12:48;18.00;40.40
76293;DHT22;65101;51.140;4.088;2022-12-18T14:18:01;18.20;40.20
76293;DHT22;65101;51.140;4.088;2022-12-18T14:20:30;18.40;39.90
76293;DHT22;65101;51.140;4.088;2022-12-18T14:22:57;18.50;39.90
76293;DHT22;65101;51.140;4.088;2022-12-18T14:25:30;18.60;39.50
76293;DHT22;65101;51.140;4.088;2022-12-18T14:30:30;18.80;38.90
76293;DHT22;65101;51.140;4.088;2022-12-18T14:33:00;18.90;38.70
76293;DHT22;65101;51.140;4.088;2022-12-18T14:35:27;18.90;39.20
76293;DHT22;65101;51.140;4.088;2022-12-18T14:37:52;19.00;39.20
76293;DHT22;65101;51.140;4.088;2022-12-18T14:40:18;19.10;39.30
76293;DHT22;65101;51.140;4.088;2022-12-18T14:42:45;19.10;38.80
76293;DHT22;65101;51.140;4.088;2022-12-18T14:45:33;19.20;38.70
76293;DHT22;65101;51.140;4.088;2022-12-18T14:47:59;19.10;39.10
76293;DHT22;65101;51.140;4.088;2022-12-18T14:50:25;19.00;37.70
76293;DHT22;65101;51.140;4.088;2022-12-18T14:52:52;18.90;38.40
76293;DHT22;65101;51.140;4.088;2022-12-18T14:55:19;18.80;38.20
76293;DHT22;65101;51.140;4.088;2022-12-18T14:57:46;18.80;38.00
76293;DHT22;65101;51.140;4.088;2022-12-18T15:00:19;18.80;37.90
76293;DHT22;65101;51.140;4.088;2022-12-18T15:02:56;18.80;38.00
76293;DHT22;65101;51.140;4.088;2022-12-18T15:05:26;18.90;37.80
76293;DHT22;65101;51.140;4.088;2022-12-18T15:07:55;18.90;37.70
76293;DHT22;65101;51.140;4.088;2022-12-18T15:10:23;18.90;37.80
76293;DHT22;65101;51.140;4.088;2022-12-18T15:23:51;18.90;37.60
76293;DHT22;65101;51.140;4.088;2022-12-18T15:26:19;19.10;39.30
76293;DHT22;65101;51.140;4.088;2022-12-18T15:28:46;19.20;38.80
76293;DHT22;65101;51.140;4.088;2022-12-18T15:36:18;19.30;38.90
76293;DHT22;65101;51.140;4.088;2022-12-18T15:38:48;19.30;38.60
76293;DHT22;65101;51.140;4.088;2022-12-18T15:41:15;19.20;38.70
76293;DHT22;65101;51.140;4.088;2022-12-18T15:43:41;19.20;39.00
76293;DHT22;65101;51.140;4.088;2022-12-18T15:48:48;19.30;38.80
76293;DHT22;65101;51.140;4.088;2022-12-18T15:51:23;19.20;39.60
76293;DHT22;65101;51.140;4.088;2022-12-18T15:53:51;19.20;39.10
76293;DHT22;65101;51.140;4.088;2022-12-18T15:56:19;19.20;39.30
76293;DHT22;65101;51.140;4.088;2022-12-18T15:59:12;19.10;38.80
76293;DHT22;65101;51.140;4.088;2022-12-18T16:01:38;19.10;39.20
76293;DHT22;65101;51.140;4.088;2022-12-18T16:04:03;19.00;39.50
76293;DHT22;65101;51.140;4.088;2022-12-18T16:06:29;19.00;39.60
76293;DHT22;65101;51.140;4.088;2022-12-18T16:08:55;19.00;39.90
76293;DHT22;65101;51.140;4.088;2022-12-18T16:11:27;19.00;39.30
76293;DHT22;65101;51.140;4.088;2022-12-18T16:16:41;18.90;39.80
76293;DHT22;65101;51.140;4.088;2022-12-18T16:19:07;18.90;40.00
76293;DHT22;65101;51.140;4.088;2022-12-18T16:21:33;18.80;39.90
76293;DHT22;65101;51.140;4.088;2022-12-18T16:23:58;18.80;39.50
76293;DHT22;65101;51.140;4.088;2022-12-18T16:26:25;18.80;39.60
76293;DHT22;65101;51.140;4.088;2022-12-18T16:28:51;18.70;39.90
76293;DHT22;65101;51.140;4.088;2022-12-18T16:31:17;18.60;39.70
76293;DHT22;65101;51.140;4.088;2022-12-18T16:33:42;18.60;39.90
76293;DHT22;65101;51.140;4.088;2022-12-18T16:36:08;18.60;40.40
76293;DHT22;65101;51.140;4.088;2022-12-18T16:38:33;18.60;40.60
76293;DHT22;65101;51.140;4.088;2022-12-18T16:40:59;18.60;40.40
76293;DHT22;65101;51.140;4.088;2022-12-18T16:43:44;18.50;40.70
76293;DHT22;65101;51.140;4.088;2022-12-18T16:46:09;18.50;40.80
76293;DHT22;65101;51.140;4.088;2022-12-18T16:48:35;18.40;40.50
76293;DHT22;65101;51.140;4.088;2022-12-18T16:51:02;18.40;41.10
76293;DHT22;65101;51.140;4.088;2022-12-18T16:53:28;18.30;40.60
76293;DHT22;65101;51.140;4.088;2022-12-18T16:55:55;18.20;40.70
76293;DHT22;65101;51.140;4.088;2022-12-18T16:58:20;18.20;41.00
76293;DHT22;65101;51.140;4.088;2022-12-18T17:00:46;18.20;41.10
76293;DHT22;65101;51.140;4.088;2022-12-18T17:03:12;18.10;41.10
76293;DHT22;65101;51.140;4.088;2022-12-18T17:05:38;18.10;41.70
76293;DHT22;65101;51.140;4.088;2022-12-18T17:08:04;18.00;41.90
76293;DHT22;65101;51.140;4.088;2022-12-18T17:10:29;18.00;40.90
76293;DHT22;65101;51.140;4.088;2022-12-18T17:12:55;17.90;41.20
76293;DHT22;65101;51.140;4.088;2022-12-18T17:15:21;17.90;41.80
76293;DHT22;65101;51.140;4.088;2022-12-18T17:17:47;17.80;42.20
76293;DHT22;65101;51.140;4.088;2022-12-18T17:20:13;17.80;41.80
76293;DHT22;65101;51.140;4.088;2022-12-18T17:22:39;17.70;42.20
76293;DHT22;65101;51.140;4.088;2022-12-18T17:25:05;17.60;42.90
76293;DHT22;65101;51.140;4.088;2022-12-18T17:27:30;17.60;42.60
76293;DHT22;65101;51.140;4.088;2022-12-18T17:29:56;17.50;42.20
76293;DHT22;65101;51.140;4.088;2022-12-18T17:32:21;17.40;42.80
76293;DHT22;65101;51.140;4.088;2022-12-18T17:34:47;17.40;42.50
76293;DHT22;65101;51.140;4.088;2022-12-18T17:37:13;17.40;42.60